createdAt,value
2018-10-03T00:01:15.392Z,9.73
2018-10-03T00:03:45.035Z,9.10
2018-10-03T00:06:15.069Z,8.93
2018-10-03T00:08:44.624Z,9.07
2018-10-03T00:11:14.381Z,9.30
2018-10-03T00:13:46.688Z,8.10
2018-10-03T00:16:16.228Z,7.27
2018-10-03T00:18:45.966Z,7.20
2018-10-03T00:21:15.732Z,6.60
2018-10-03T00:23:45.300Z,6.10
2018-10-03T00:26:14.757Z,6.13
2018-10-03T00:28:44.259Z,6.33
2018-10-03T00:31:13.811Z,6.10
2018-10-03T00:33:43.008Z,5.43
2018-10-03T00:36:12.764Z,6.03
2018-10-03T00:38:42.267Z,5.45
2018-10-03T00:41:12.084Z,5.33
2018-10-03T00:43:41.424Z,5.80
2018-10-03T00:46:10.987Z,5.37
2018-10-03T00:48:40.609Z,5.00
2018-10-03T00:51:10.405Z,5.33
2018-10-03T00:53:40.223Z,5.47
2018-10-03T00:56:09.474Z,5.20
2018-10-03T00:58:39.087Z,5.30
2018-10-03T01:01:08.734Z,5.17
2018-10-03T01:03:38.713Z,4.97
2018-10-03T01:06:08.352Z,5.20
2018-10-03T01:08:37.923Z,4.67
2018-10-03T01:11:07.696Z,5.37
2018-10-03T01:13:37.312Z,5.03
2018-10-03T01:16:07.059Z,5.15
2018-10-03T01:18:36.946Z,4.97
2018-10-03T01:21:06.559Z,5.97
2018-10-03T01:23:36.022Z,5.10
2018-10-03T01:26:05.593Z,5.20
2018-10-03T01:28:35.110Z,4.07
2018-10-03T01:31:05.422Z,5.60
2018-10-03T01:33:34.702Z,4.70
2018-10-03T01:36:04.463Z,4.97
2018-10-03T01:38:34.298Z,5.43
2018-10-03T01:41:04.132Z,5.30
2018-10-03T01:43:33.501Z,5.43
2018-10-03T01:46:03.682Z,5.25
2018-10-03T01:48:33.599Z,5.05
2018-10-03T01:51:03.436Z,6.03
2018-10-03T01:53:32.741Z,5.30
2018-10-03T01:56:02.658Z,5.92
2018-10-03T01:58:32.334Z,5.80
2018-10-03T02:01:01.956Z,5.58
2018-10-03T02:03:31.886Z,6.03
2018-10-03T02:06:01.633Z,5.33
2018-10-03T02:08:31.704Z,6.53
2018-10-03T02:12:30.492Z,5.60
2018-10-03T02:14:59.812Z,6.65
2018-10-03T02:17:29.320Z,6.12
2018-10-03T02:19:59.104Z,5.55
2018-10-03T02:22:28.921Z,5.50
2018-10-03T02:24:58.422Z,6.45
2018-10-03T02:27:28.132Z,6.05
2018-10-03T02:29:57.726Z,5.67
2018-10-03T02:32:28.167Z,6.55
2018-10-03T02:34:58.276Z,5.05
2018-10-03T02:37:28.120Z,6.50
2018-10-03T02:39:57.977Z,7.47
2018-10-03T02:42:27.828Z,6.90
2018-10-03T02:44:57.970Z,7.47
2018-10-03T02:47:27.576Z,6.55
2018-10-03T02:50:04.365Z,7.10
2018-10-03T02:52:38.871Z,6.15
2018-10-03T02:55:08.776Z,6.33
2018-10-03T02:57:38.396Z,6.35
2018-10-03T03:00:08.701Z,5.53
2018-10-03T03:02:38.496Z,5.90
2018-10-03T03:05:08.520Z,6.85
2018-10-03T03:07:40.335Z,5.87
2018-10-03T03:10:11.042Z,6.70
2018-10-03T03:12:41.170Z,7.10
2018-10-03T03:15:11.982Z,6.20
2018-10-03T03:17:41.776Z,6.40
2018-10-03T03:20:12.320Z,6.07
2018-10-03T03:22:41.845Z,6.20
2018-10-03T03:25:11.346Z,6.00
2018-10-03T03:27:41.762Z,7.00
2018-10-03T03:30:11.989Z,6.90
2018-10-03T03:32:42.007Z,5.22
2018-10-03T03:35:38.156Z,6.33
2018-10-03T03:38:19.777Z,5.70
2018-10-03T03:40:59.871Z,5.75
2018-10-03T03:43:56.728Z,5.92
2018-10-03T03:46:34.534Z,7.47
2018-10-03T03:49:14.345Z,6.77
2018-10-03T03:51:55.473Z,6.28
2018-10-03T03:54:46.865Z,5.65
2018-10-03T03:57:30.705Z,5.73
2018-10-03T04:00:07.044Z,4.33
2018-10-03T04:02:35.825Z,5.65
2018-10-03T04:05:07.138Z,5.80
2018-10-03T04:07:36.251Z,5.10
2018-10-03T04:10:05.617Z,5.45
2018-10-03T04:12:39.879Z,6.20
2018-10-03T04:15:10.705Z,5.75
2018-10-03T04:17:41.408Z,5.55
2018-10-03T04:20:11.847Z,5.62
2018-10-03T04:22:42.194Z,6.03
2018-10-03T04:25:12.390Z,6.87
2018-10-03T04:27:43.202Z,5.75
2018-10-03T04:30:15.481Z,6.33
2018-10-03T04:32:52.456Z,5.13
2018-10-03T04:35:23.756Z,6.22
2018-10-03T04:37:54.947Z,5.47
2018-10-03T04:40:24.717Z,5.13
2018-10-03T04:42:55.201Z,5.50
2018-10-03T04:45:25.342Z,4.58
2018-10-03T04:47:55.791Z,5.50
2018-10-03T04:50:26.282Z,5.28
2018-10-03T04:52:57.313Z,5.97
2018-10-03T04:55:27.275Z,5.57
2018-10-03T04:57:57.445Z,4.00
2018-10-03T05:00:27.868Z,5.20
2018-10-03T05:02:58.486Z,5.40
2018-10-03T05:05:28.923Z,4.83
2018-10-03T05:07:59.200Z,5.03
2018-10-03T05:10:28.715Z,7.07
2018-10-03T05:13:25.759Z,6.75
2018-10-03T05:15:55.315Z,4.92
2018-10-03T05:18:24.814Z,5.45
2018-10-03T05:20:54.948Z,5.25
2018-10-03T05:23:25.868Z,5.42
2018-10-03T05:25:55.785Z,5.72
2018-10-03T05:28:25.411Z,6.28
2018-10-03T05:30:55.068Z,5.42
2018-10-03T05:33:25.172Z,4.70
2018-10-03T05:35:54.949Z,5.58
2018-10-03T05:38:24.653Z,4.17
2018-10-03T05:40:55.061Z,4.37
2018-10-03T05:43:25.920Z,4.90
2018-10-03T05:45:56.352Z,5.50
2018-10-03T05:48:26.413Z,4.85
2018-10-03T05:50:55.792Z,4.80
2018-10-03T05:53:25.503Z,5.65
2018-10-03T05:55:55.465Z,5.65
2018-10-03T05:58:25.707Z,5.37
2018-10-03T06:00:55.773Z,5.62
2018-10-03T06:03:25.177Z,5.60
2018-10-03T06:05:54.762Z,6.58
2018-10-03T06:08:24.555Z,5.80
2018-10-03T06:10:53.864Z,5.92
2018-10-03T06:13:23.450Z,7.55
2018-10-03T06:15:53.356Z,6.70
2018-10-03T06:18:23.360Z,6.12
2018-10-03T06:20:52.820Z,6.37
2018-10-03T06:23:22.348Z,6.05
2018-10-03T06:25:51.905Z,6.00
2018-10-03T06:28:21.155Z,5.22
2018-10-03T06:30:50.593Z,5.45
2018-10-03T06:33:20.158Z,5.53
2018-10-03T06:35:49.283Z,6.58
2018-10-03T06:38:18.161Z,5.97
2018-10-03T06:40:47.896Z,6.78
2018-10-03T06:43:17.019Z,5.90
2018-10-03T06:45:46.293Z,5.95
2018-10-03T06:48:15.129Z,5.83
2018-10-03T06:50:43.885Z,6.22
2018-10-03T06:53:13.211Z,5.35
2018-10-03T06:55:42.180Z,6.00
2018-10-03T06:58:11.106Z,5.47
2018-10-03T07:00:39.461Z,5.47
2018-10-03T07:03:08.115Z,5.92
2018-10-03T07:05:36.559Z,5.95
2018-10-03T07:08:05.128Z,5.10
2018-10-03T07:10:34.100Z,6.30
2018-10-03T07:13:02.549Z,5.73
2018-10-03T07:15:31.105Z,5.57
2018-10-03T07:17:59.871Z,5.57
2018-10-03T07:20:28.351Z,4.33
2018-10-03T07:22:56.777Z,5.30
2018-10-03T07:25:25.217Z,5.17
2018-10-03T07:27:54.156Z,6.60
2018-10-03T07:30:22.684Z,5.20
2018-10-03T07:32:51.072Z,5.50
2018-10-03T07:35:19.448Z,4.97
2018-10-03T07:37:47.840Z,4.50
2018-10-03T07:40:16.216Z,4.93
2018-10-03T07:42:44.589Z,6.23
2018-10-03T07:45:12.954Z,5.77
2018-10-03T07:47:41.332Z,4.73
2018-10-03T07:50:10.600Z,6.20
2018-10-03T07:52:39.160Z,4.83
2018-10-03T07:55:07.616Z,4.97
2018-10-03T07:57:36.477Z,5.73
2018-10-03T08:00:06.224Z,4.70
2018-10-03T08:02:34.680Z,5.07
2018-10-03T08:05:03.830Z,5.63
2018-10-03T08:07:32.263Z,4.43
2018-10-03T08:10:00.651Z,5.07
2018-10-03T08:12:29.325Z,4.33
2018-10-03T08:14:57.816Z,4.23
2018-10-03T08:17:26.268Z,4.37
2018-10-03T08:19:54.858Z,4.30
2018-10-03T08:22:23.417Z,5.40
2018-10-03T08:24:51.856Z,4.20
2018-10-03T08:27:20.220Z,5.13
2018-10-03T08:29:48.619Z,4.03
2018-10-03T08:32:17.204Z,4.37
2018-10-03T08:34:45.564Z,5.27
2018-10-03T08:37:13.952Z,5.50
2018-10-03T08:39:42.316Z,5.03
2018-10-03T08:42:10.719Z,4.67
2018-10-03T08:44:39.106Z,4.57
2018-10-03T08:47:07.561Z,4.53
2018-10-03T08:49:35.928Z,4.33
2018-10-03T08:52:05.269Z,4.60
2018-10-03T08:54:33.723Z,6.23
2018-10-03T08:57:02.832Z,4.80
2018-10-03T08:59:31.284Z,5.10
2018-10-03T09:01:59.945Z,4.90
2018-10-03T09:04:29.367Z,5.53
2018-10-03T09:06:58.376Z,6.37
2018-10-03T09:09:26.834Z,6.33
2018-10-03T09:11:56.013Z,7.90
2018-10-03T09:14:24.500Z,6.20
2018-10-03T09:16:53.792Z,5.53
2018-10-03T09:19:22.765Z,5.13
2018-10-03T09:21:51.244Z,4.83
2018-10-03T09:24:19.704Z,5.97
2018-10-03T09:26:48.098Z,4.30
2018-10-03T09:29:16.696Z,5.00
2018-10-03T09:31:45.156Z,4.10
2018-10-03T09:34:13.528Z,4.57
2018-10-03T09:36:42.049Z,5.17
2018-10-03T09:39:12.020Z,4.57
2018-10-03T10:37:31.829Z,4.60
2018-10-03T10:40:00.409Z,4.43
2018-10-03T10:42:29.168Z,3.95
2018-10-03T11:44:16.984Z,4.80
2018-10-03T11:46:45.364Z,5.20
2018-10-03T11:49:14.063Z,5.07
2018-10-03T11:51:42.428Z,5.60
2018-10-03T11:54:11.189Z,5.57
2018-10-03T11:56:40.256Z,5.80
2018-10-03T11:59:08.728Z,5.40
2018-10-03T12:01:37.176Z,5.50
2018-10-03T12:09:01.181Z,6.03
2018-10-03T12:11:29.557Z,4.73
2018-10-03T12:13:57.956Z,5.47
2018-10-03T12:16:27.189Z,6.30
2018-10-03T12:18:55.625Z,5.60
2018-10-03T12:21:23.985Z,4.73
2018-10-03T12:23:52.680Z,4.80
2018-10-03T12:26:21.112Z,4.30
2018-10-03T12:58:28.166Z,3.73
2018-10-03T13:00:56.786Z,3.90
2018-10-03T13:10:50.273Z,3.97
2018-10-03T13:13:18.724Z,3.83
2018-10-03T13:15:47.785Z,3.20
2018-10-03T13:18:21.471Z,3.80
2018-10-03T13:20:51.560Z,3.80
2018-10-03T13:23:20.209Z,3.10
2018-10-03T13:25:48.841Z,3.97
2018-10-03T13:28:17.448Z,3.80
2018-10-03T13:30:46.462Z,3.70
2018-10-03T13:33:14.922Z,4.30
2018-10-03T13:35:43.526Z,3.97
2018-10-03T13:38:12.283Z,3.37
2018-10-03T13:40:41.075Z,4.27
2018-10-03T13:43:09.724Z,3.50
2018-10-03T13:45:39.227Z,4.20
2018-10-03T13:48:07.771Z,4.20
2018-10-03T13:50:37.724Z,3.43
2018-10-03T13:53:07.542Z,3.80
2018-10-03T13:58:03.698Z,3.47
2018-10-03T14:00:32.413Z,3.80
2018-10-03T14:03:00.941Z,3.83
2018-10-03T14:05:29.608Z,4.00
2018-10-03T14:07:58.982Z,4.70
2018-10-03T14:10:27.640Z,4.40
2018-10-03T14:12:56.328Z,3.87
2018-10-03T14:15:25.991Z,3.30
2018-10-03T14:17:54.522Z,3.90
2018-10-03T14:20:23.182Z,4.27
2018-10-03T14:22:53.436Z,3.87
2018-10-03T14:25:21.904Z,3.47
2018-10-03T14:27:50.376Z,4.00
2018-10-03T14:30:18.773Z,4.10
2018-10-03T14:32:47.486Z,3.73
2018-10-03T14:35:16.580Z,3.20
2018-10-03T14:37:45.956Z,3.47
2018-10-03T14:40:14.332Z,4.67
2018-10-03T14:42:42.697Z,3.53
2018-10-03T14:45:11.110Z,3.77
2018-10-03T14:47:39.561Z,4.30
2018-10-03T14:50:08.336Z,4.03
2018-10-03T14:52:37.149Z,3.20
2018-10-03T14:55:10.520Z,3.57
2018-10-03T14:57:39.112Z,3.60
2018-10-03T15:00:08.625Z,3.10
2018-10-03T15:02:38.009Z,4.10
2018-10-03T15:05:09.044Z,3.07
2018-10-03T15:47:17.480Z,4.87
2018-10-03T15:52:16.522Z,4.00
2018-10-03T15:54:45.735Z,4.33
2018-10-03T15:57:15.052Z,3.70
2018-10-03T15:59:44.473Z,4.13
2018-10-03T16:02:13.329Z,3.80
2018-10-03T16:04:45.230Z,3.33
2018-10-03T16:22:10.921Z,3.07
2018-10-03T16:24:41.317Z,3.20
2018-10-03T16:27:10.834Z,3.40
2018-10-03T16:29:40.361Z,3.50
2018-10-03T16:32:11.430Z,3.60
2018-10-03T16:34:41.637Z,3.40
2018-10-03T16:37:10.796Z,3.83
2018-10-03T16:39:39.888Z,3.37
2018-10-03T16:42:09.210Z,3.20
2018-10-03T16:44:38.805Z,2.83
2018-10-03T16:47:08.406Z,3.13
2018-10-03T16:49:38.007Z,3.50
2018-10-03T16:52:07.213Z,3.60
2018-10-03T16:54:36.404Z,3.43
2018-10-03T16:57:05.843Z,3.37
2018-10-03T16:59:34.999Z,3.50
2018-10-03T17:02:04.298Z,3.47
2018-10-03T17:04:33.392Z,3.47
2018-10-03T17:07:02.357Z,4.40
2018-10-03T17:09:31.322Z,3.03
2018-10-03T17:12:00.125Z,3.40
2018-10-03T17:14:32.481Z,3.03
2018-10-03T17:17:01.244Z,3.40
2018-10-03T17:19:30.369Z,3.97
2018-10-03T17:22:00.042Z,4.17
2018-10-03T17:24:31.117Z,3.73
2018-10-03T17:27:00.054Z,4.10
2018-10-03T17:29:29.309Z,3.20
2018-10-03T17:31:58.507Z,3.20
2018-10-03T17:34:27.889Z,3.40
2018-10-03T17:36:57.357Z,4.20
2018-10-03T17:39:28.534Z,3.43
2018-10-03T17:41:58.523Z,4.20
2018-10-03T17:44:29.051Z,3.70
2018-10-03T17:46:59.354Z,3.90
2018-10-03T17:49:28.697Z,4.60
2018-10-03T17:51:57.680Z,3.43
2018-10-03T17:54:29.632Z,4.60
2018-10-03T17:56:58.868Z,3.93
2018-10-03T17:59:27.942Z,4.30
2018-10-03T18:01:59.313Z,4.47
2018-10-03T18:04:28.452Z,4.30
2018-10-03T18:06:57.999Z,4.10
2018-10-03T18:09:27.438Z,4.03
2018-10-03T18:11:56.229Z,4.30
2018-10-03T18:14:24.904Z,4.37
2018-10-03T18:16:54.201Z,4.50
2018-10-03T18:19:23.518Z,4.90
2018-10-03T18:21:53.071Z,4.60
2018-10-03T18:24:22.619Z,4.40
2018-10-03T18:26:51.530Z,4.60
2018-10-03T18:29:20.589Z,4.03
2018-10-03T18:31:49.603Z,4.90
2018-10-03T18:34:19.811Z,4.70
2018-10-03T18:36:48.520Z,4.87
2018-10-03T18:39:18.148Z,4.83
2018-10-03T18:41:47.627Z,4.90
2018-10-03T18:44:18.501Z,4.57
2018-10-03T18:46:47.831Z,4.50
2018-10-03T18:49:17.172Z,5.30
2018-10-03T18:51:47.722Z,5.37
2018-10-03T18:54:17.256Z,5.30
2018-10-03T18:56:46.711Z,5.37
2018-10-03T18:59:16.334Z,4.90
2018-10-03T19:01:46.013Z,6.17
2018-10-03T19:04:15.668Z,6.03
2018-10-03T19:06:45.449Z,4.40
2018-10-03T19:09:14.665Z,5.10
2018-10-03T19:11:44.169Z,4.43
2018-10-03T19:14:13.847Z,5.27
2018-10-03T19:16:43.286Z,5.73
2018-10-03T19:19:12.820Z,4.60
2018-10-03T19:21:42.729Z,5.30
2018-10-03T19:24:11.989Z,4.73
2018-10-03T19:26:42.602Z,4.03
2018-10-03T19:29:13.252Z,4.40
2018-10-03T19:31:42.631Z,4.40
2018-10-03T19:34:12.110Z,4.57
2018-10-03T19:36:41.466Z,4.63
2018-10-03T19:39:10.981Z,4.80
2018-10-03T19:41:41.225Z,3.90
2018-10-03T19:44:11.165Z,4.70
2018-10-03T19:46:40.703Z,4.20
2018-10-03T19:49:09.970Z,3.67
2018-10-03T19:51:39.579Z,4.20
2018-10-03T19:54:10.853Z,4.43
2018-10-03T19:56:40.437Z,3.57
2018-10-03T19:59:09.559Z,4.60
2018-10-03T20:01:39.184Z,5.20
2018-10-03T20:04:09.842Z,4.00
2018-10-03T20:06:39.736Z,3.93
2018-10-03T20:09:09.656Z,4.73
2018-10-03T20:11:39.873Z,4.47
2018-10-03T20:14:09.368Z,4.30
2018-10-03T20:16:38.987Z,4.20
2018-10-03T20:19:08.110Z,3.90
2018-10-03T20:21:37.637Z,4.27
2018-10-03T20:24:06.891Z,4.60
2018-10-03T20:26:35.939Z,4.53
2018-10-03T20:29:05.100Z,4.70
2018-10-03T20:31:34.580Z,4.07
2018-10-03T20:34:03.816Z,3.70
2018-10-03T20:36:32.983Z,4.50
2018-10-03T20:39:02.457Z,4.57
2018-10-03T20:41:31.461Z,4.70
2018-10-03T20:44:00.771Z,4.65
2018-10-03T20:51:26.218Z,3.83
2018-10-03T20:58:52.993Z,4.40
2018-10-03T21:06:18.910Z,4.97
2018-10-03T21:16:14.194Z,3.85
2018-10-03T21:21:11.769Z,4.57
2018-10-03T22:15:49.163Z,4.73
2018-10-03T22:20:47.628Z,4.57
2018-10-03T22:23:18.421Z,5.05
2018-10-03T22:25:48.413Z,4.80
2018-10-03T22:28:18.494Z,5.40
2018-10-03T22:30:49.275Z,5.07
2018-10-03T22:33:19.448Z,5.50
2018-10-03T22:35:49.749Z,6.00
2018-10-03T22:38:19.257Z,4.37
2018-10-03T22:40:49.635Z,5.03
2018-10-03T22:43:18.613Z,5.43
2018-10-03T22:45:47.802Z,4.53
2018-10-03T22:48:17.200Z,4.30
2018-10-03T22:53:15.124Z,4.97
2018-10-03T22:55:55.435Z,5.60
2018-10-03T22:58:24.813Z,4.53
2018-10-03T23:00:54.391Z,4.90
2018-10-03T23:33:06.143Z,4.37
2018-10-03T23:35:35.465Z,4.30
2018-10-03T23:38:05.263Z,3.90
2018-10-03T23:40:34.652Z,4.47
2018-10-03T23:43:03.765Z,3.90
2018-10-03T23:45:33.627Z,4.30
2018-10-03T23:48:03.344Z,5.57
2018-10-03T23:50:33.405Z,3.90
2018-10-03T23:53:03.502Z,4.40
2018-10-03T23:55:32.723Z,4.00
2018-10-03T23:58:03.002Z,4.00
